createdAt,value
2017-07-09T00:02:18.639Z,64.62
2017-07-09T00:04:46.031Z,64.26
2017-07-09T00:07:13.434Z,64.01
2017-07-09T00:09:40.824Z,64.14
2017-07-09T00:12:08.224Z,64.04
2017-07-09T00:14:35.903Z,63.79
2017-07-09T00:17:03.309Z,63.77
2017-07-09T00:19:30.700Z,63.76
2017-07-09T00:21:58.099Z,64.02
2017-07-09T00:24:25.483Z,63.83
2017-07-09T00:26:52.888Z,64.14
2017-07-09T00:29:20.331Z,64.13
2017-07-09T00:31:47.727Z,64.16
2017-07-09T00:34:15.115Z,63.67
2017-07-09T00:36:42.536Z,64.07
2017-07-09T00:39:09.945Z,63.47
2017-07-09T00:41:37.619Z,63.60
2017-07-09T00:44:05.034Z,63.75
2017-07-09T00:46:32.423Z,63.57
2017-07-09T00:48:59.823Z,63.78
2017-07-09T00:51:27.215Z,63.81
2017-07-09T00:53:54.640Z,63.90
2017-07-09T00:56:22.019Z,63.93
2017-07-09T00:58:49.415Z,64.20
2017-07-09T01:01:16.799Z,63.98
2017-07-09T01:03:44.201Z,64.14
2017-07-09T01:06:11.595Z,63.74
2017-07-09T01:08:39.000Z,64.06
2017-07-09T01:11:06.400Z,63.70
2017-07-09T01:13:33.799Z,64.09
2017-07-09T01:16:01.194Z,64.39
2017-07-09T01:18:28.593Z,63.88
2017-07-09T01:20:55.985Z,63.64
2017-07-09T01:23:23.378Z,64.01
2017-07-09T01:25:50.772Z,64.07
2017-07-09T01:28:18.167Z,63.62
2017-07-09T01:30:45.569Z,63.83
2017-07-09T01:33:12.959Z,63.97
2017-07-09T01:35:40.352Z,64.08
2017-07-09T01:38:07.755Z,63.90
2017-07-09T01:40:35.172Z,64.17
2017-07-09T01:43:02.582Z,63.96
2017-07-09T01:45:29.968Z,63.81
2017-07-09T01:47:57.387Z,63.43
2017-07-09T01:50:24.785Z,64.00
2017-07-09T01:52:52.171Z,64.03
2017-07-09T01:55:19.899Z,64.17
2017-07-09T01:57:47.278Z,64.13
2017-07-09T02:00:14.680Z,63.91
2017-07-09T02:02:42.080Z,63.80
2017-07-09T02:05:09.491Z,64.10
2017-07-09T02:07:36.873Z,64.51
2017-07-09T02:10:04.283Z,64.60
2017-07-09T02:12:31.675Z,65.28
2017-07-09T02:14:59.067Z,65.25
2017-07-09T02:17:26.459Z,65.55
2017-07-09T02:19:53.859Z,65.04
2017-07-09T02:22:21.247Z,64.87
2017-07-09T02:24:48.664Z,64.80
2017-07-09T02:27:16.065Z,65.35
2017-07-09T02:29:43.457Z,65.17
2017-07-09T02:32:10.857Z,65.78
2017-07-09T02:34:38.252Z,65.80
2017-07-09T02:37:05.646Z,65.51
2017-07-09T02:39:33.047Z,65.66
2017-07-09T02:42:00.447Z,66.29
2017-07-09T02:44:27.856Z,66.18
2017-07-09T02:46:55.268Z,65.55
2017-07-09T02:49:22.665Z,65.77
2017-07-09T02:51:50.055Z,65.64
2017-07-09T02:54:17.452Z,65.70
2017-07-09T02:56:44.839Z,65.94
2017-07-09T02:59:12.247Z,65.20
2017-07-09T03:01:39.640Z,65.29
2017-07-09T03:04:07.033Z,65.28
2017-07-09T03:06:34.436Z,65.28
2017-07-09T03:09:01.823Z,64.99
2017-07-09T03:11:29.223Z,65.17
2017-07-09T03:13:56.622Z,65.24
2017-07-09T03:16:24.026Z,65.95
2017-07-09T03:18:51.409Z,66.71
2017-07-09T03:21:18.817Z,66.97
2017-07-09T03:23:46.213Z,66.58
2017-07-09T03:26:13.603Z,67.12
2017-07-09T03:28:41.004Z,67.69
2017-07-09T03:31:08.395Z,67.95
2017-07-09T03:33:36.107Z,67.77
2017-07-09T03:36:03.500Z,67.80
2017-07-09T03:38:30.898Z,68.07
2017-07-09T03:40:58.316Z,68.38
2017-07-09T03:43:25.707Z,67.45
2017-07-09T03:45:53.108Z,66.34
2017-07-09T03:48:20.520Z,66.60
2017-07-09T03:50:47.930Z,66.69
2017-07-09T03:53:15.320Z,66.53
2017-07-09T03:55:42.720Z,66.40
2017-07-09T03:58:10.111Z,65.84
2017-07-09T04:00:37.510Z,66.29
2017-07-09T04:03:04.913Z,65.93
2017-07-09T04:05:32.321Z,65.56
2017-07-09T04:07:59.724Z,65.18
2017-07-09T04:10:27.108Z,65.46
2017-07-09T04:12:54.512Z,66.06
2017-07-09T04:15:21.924Z,66.58
2017-07-09T04:17:49.314Z,66.75
2017-07-09T04:20:16.704Z,66.35
2017-07-09T04:22:44.106Z,66.50
2017-07-09T04:25:11.504Z,66.70
2017-07-09T04:27:38.904Z,66.86
2017-07-09T04:30:06.291Z,66.77
2017-07-09T04:32:33.691Z,67.01
2017-07-09T04:35:01.091Z,66.37
2017-07-09T04:37:28.488Z,66.98
2017-07-09T04:39:55.879Z,66.63
2017-07-09T04:42:23.282Z,66.77
2017-07-09T04:44:50.663Z,67.24
2017-07-09T04:47:18.063Z,67.31
2017-07-09T04:49:45.455Z,67.32
2017-07-09T04:52:12.855Z,66.57
2017-07-09T04:54:40.269Z,67.12
2017-07-09T04:57:07.683Z,67.19
2017-07-09T04:59:35.075Z,68.34
2017-07-09T05:02:02.481Z,67.96
2017-07-09T05:04:29.875Z,68.26
2017-07-09T05:06:57.271Z,68.06
2017-07-09T05:09:24.692Z,67.78
2017-07-09T05:11:52.088Z,67.15
2017-07-09T05:14:19.482Z,66.94
2017-07-09T05:16:46.885Z,67.06
2017-07-09T05:19:14.281Z,67.75
2017-07-09T05:21:41.680Z,67.60
2017-07-09T05:24:09.065Z,68.08
2017-07-09T05:26:37.013Z,68.23
2017-07-09T05:29:04.408Z,67.83
2017-07-09T05:31:31.806Z,67.92
2017-07-09T05:33:59.207Z,68.53
2017-07-09T05:36:26.604Z,68.14
2017-07-09T05:38:54.007Z,67.89
2017-07-09T05:41:21.402Z,68.19
2017-07-09T05:43:48.809Z,67.36
2017-07-09T05:46:16.205Z,67.68
2017-07-09T05:48:43.599Z,67.17
2017-07-09T05:51:11.219Z,66.71
2017-07-09T05:53:38.611Z,65.44
2017-07-09T05:56:06.009Z,65.53
2017-07-09T05:58:33.403Z,65.75
2017-07-09T06:01:00.819Z,65.51
2017-07-09T06:03:28.225Z,64.91
2017-07-09T06:05:55.619Z,65.08
2017-07-09T06:08:23.023Z,64.51
2017-07-09T06:10:50.410Z,63.84
2017-07-09T06:13:17.819Z,63.24
2017-07-09T06:15:45.211Z,62.84
2017-07-09T06:18:12.615Z,62.72
2017-07-09T06:20:40.013Z,61.06
2017-07-09T06:23:07.421Z,61.21
2017-07-09T06:25:34.832Z,61.24
2017-07-09T06:28:02.219Z,59.15
2017-07-09T06:30:29.614Z,59.00
2017-07-09T06:32:57.260Z,59.06
2017-07-09T06:35:24.657Z,58.08
2017-07-09T06:37:52.232Z,59.21
2017-07-09T06:40:19.948Z,59.88
2017-07-09T06:42:47.352Z,59.30
2017-07-09T06:45:14.754Z,59.30
2017-07-09T06:47:42.180Z,57.86
2017-07-09T06:50:09.575Z,56.24
2017-07-09T06:52:36.972Z,55.78
2017-07-09T06:55:04.384Z,56.41
2017-07-09T06:57:31.780Z,57.16
2017-07-09T06:59:59.175Z,56.47
2017-07-09T07:02:26.568Z,55.04
2017-07-09T07:04:54.201Z,55.81
2017-07-09T07:07:21.592Z,55.09
2017-07-09T07:09:48.989Z,52.63
2017-07-09T07:12:16.372Z,53.15
2017-07-09T07:14:43.774Z,51.08
2017-07-09T07:17:11.175Z,51.67
2017-07-09T07:19:38.564Z,51.44
2017-07-09T07:22:05.963Z,50.90
2017-07-09T07:24:33.359Z,52.25
2017-07-09T07:27:00.784Z,53.32
2017-07-09T07:29:28.181Z,54.16
2017-07-09T07:31:55.571Z,53.22
2017-07-09T07:34:22.971Z,52.75
2017-07-09T07:36:50.358Z,52.19
2017-07-09T07:39:17.756Z,51.39
2017-07-09T07:41:45.144Z,51.51
2017-07-09T07:44:12.556Z,50.74
2017-07-09T07:46:39.944Z,49.57
2017-07-09T07:49:07.351Z,48.86
2017-07-09T07:51:34.743Z,50.49
2017-07-09T07:54:02.143Z,49.55
2017-07-09T07:56:29.540Z,49.68
2017-07-09T07:58:56.952Z,50.42
2017-07-09T08:01:24.344Z,50.62
2017-07-09T08:03:51.735Z,50.34
2017-07-09T08:06:19.136Z,50.12
2017-07-09T08:08:46.526Z,49.99
2017-07-09T08:11:14.139Z,50.05
2017-07-09T08:13:41.855Z,49.38
2017-07-09T08:16:09.259Z,49.72
2017-07-09T08:18:36.651Z,49.81
2017-07-09T08:21:04.043Z,49.67
2017-07-09T08:23:31.436Z,50.32
2017-07-09T08:25:58.839Z,49.78
2017-07-09T08:28:26.291Z,49.90
2017-07-09T08:30:53.700Z,49.49
2017-07-09T08:33:21.147Z,49.09
2017-07-09T08:35:48.557Z,49.20
2017-07-09T08:38:15.958Z,49.77
2017-07-09T08:40:43.351Z,49.81
2017-07-09T08:43:10.740Z,49.61
2017-07-09T08:45:38.136Z,49.62
2017-07-09T08:48:05.528Z,48.96
2017-07-09T08:50:32.927Z,49.13
2017-07-09T08:53:02.937Z,48.46
2017-07-09T08:55:30.347Z,49.16
2017-07-09T08:57:57.727Z,50.02
2017-07-09T09:00:25.127Z,47.48
2017-07-09T09:02:52.519Z,47.36
2017-07-09T09:05:19.917Z,46.92
2017-07-09T09:07:47.303Z,47.97
2017-07-09T09:10:14.709Z,48.97
2017-07-09T09:12:42.094Z,48.76
2017-07-09T09:15:09.486Z,48.04
2017-07-09T09:17:36.884Z,48.03
2017-07-09T09:20:04.288Z,47.10
2017-07-09T09:22:31.680Z,47.03
2017-07-09T09:24:59.068Z,46.72
2017-07-09T09:27:26.475Z,46.51
2017-07-09T09:29:53.885Z,45.34
2017-07-09T09:32:21.288Z,45.19
2017-07-09T09:34:48.672Z,47.71
2017-07-09T09:37:16.407Z,45.37
2017-07-09T09:39:43.804Z,45.13
2017-07-09T09:42:11.204Z,44.67
2017-07-09T09:44:38.596Z,46.24
2017-07-09T09:47:05.997Z,47.31
2017-07-09T09:49:33.384Z,44.41
2017-07-09T09:52:01.044Z,46.37
2017-07-09T09:54:28.563Z,45.74
2017-07-09T09:56:55.959Z,45.56
2017-07-09T09:59:23.359Z,46.16
2017-07-09T10:01:50.751Z,44.97
2017-07-09T10:04:18.144Z,44.52
2017-07-09T10:06:45.544Z,45.05
2017-07-09T10:09:12.927Z,45.43
2017-07-09T10:11:40.330Z,45.48
2017-07-09T10:14:07.719Z,45.64
2017-07-09T10:16:35.369Z,45.86
2017-07-09T10:19:02.747Z,45.70
2017-07-09T10:21:30.424Z,43.98
2017-07-09T10:23:57.843Z,46.45
2017-07-09T10:26:25.538Z,47.44
2017-07-09T10:28:52.936Z,48.08
2017-07-09T10:31:20.536Z,44.13
2017-07-09T10:33:47.938Z,42.66
2017-07-09T10:36:15.323Z,43.22
2017-07-09T10:38:42.736Z,44.16
2017-07-09T10:41:10.158Z,43.17
2017-07-09T10:43:37.563Z,43.46
2017-07-09T10:46:04.978Z,44.23
2017-07-09T10:48:32.377Z,42.78
2017-07-09T10:50:59.771Z,43.28
2017-07-09T10:53:27.184Z,44.13
2017-07-09T10:55:54.589Z,44.81
2017-07-09T10:58:21.985Z,43.45
2017-07-09T11:00:49.377Z,45.45
2017-07-09T11:03:16.775Z,46.28
2017-07-09T11:05:44.171Z,44.55
2017-07-09T11:08:11.576Z,44.73
2017-07-09T11:10:38.965Z,43.73
2017-07-09T11:13:06.363Z,44.71
2017-07-09T11:15:33.759Z,43.50
2017-07-09T11:18:01.184Z,44.40
2017-07-09T11:20:28.587Z,43.55
2017-07-09T11:22:55.993Z,46.13
2017-07-09T11:25:23.384Z,42.26
2017-07-09T11:27:50.780Z,42.84
2017-07-09T11:30:18.172Z,42.26
2017-07-09T11:32:45.579Z,43.61
2017-07-09T11:35:13.174Z,43.62
2017-07-09T11:37:40.575Z,44.16
2017-07-09T11:40:07.968Z,42.99
2017-07-09T11:42:35.388Z,43.15
2017-07-09T11:45:02.779Z,43.59
2017-07-09T11:47:30.187Z,43.83
2017-07-09T11:49:57.583Z,46.07
2017-07-09T11:52:25.211Z,45.79
2017-07-09T11:54:52.616Z,45.46
2017-07-09T11:57:20.008Z,44.64
2017-07-09T11:59:47.440Z,45.08
2017-07-09T12:02:14.832Z,44.42
2017-07-09T12:04:42.228Z,44.62
2017-07-09T12:07:09.620Z,45.36
2017-07-09T12:09:37.021Z,44.86
2017-07-09T12:12:04.426Z,44.46
2017-07-09T12:14:31.827Z,44.91
2017-07-09T12:16:59.224Z,45.03
2017-07-09T12:19:26.623Z,46.06
2017-07-09T12:21:54.022Z,46.49
2017-07-09T12:24:21.420Z,45.55
2017-07-09T12:26:48.808Z,45.35
2017-07-09T12:29:16.200Z,46.35
2017-07-09T12:31:43.588Z,44.44
2017-07-09T12:34:10.998Z,43.29
2017-07-09T12:36:38.391Z,44.77
2017-07-09T12:39:05.792Z,45.12
2017-07-09T12:41:33.195Z,43.42
2017-07-09T12:44:00.592Z,43.96
2017-07-09T12:46:27.984Z,45.12
2017-07-09T12:48:55.392Z,44.63
2017-07-09T12:51:22.776Z,44.32
2017-07-09T12:53:50.204Z,45.09
2017-07-09T12:56:17.588Z,45.76
2017-07-09T12:58:44.980Z,44.91
2017-07-09T13:01:12.380Z,44.75
2017-07-09T13:03:39.784Z,45.99
2017-07-09T13:06:07.179Z,46.47
2017-07-09T13:08:34.567Z,45.58
2017-07-09T13:11:01.970Z,44.45
2017-07-09T13:13:29.362Z,44.57
2017-07-09T13:15:57.572Z,45.04
2017-07-09T13:18:25.252Z,44.35
2017-07-09T13:20:52.648Z,44.84
2017-07-09T13:23:20.051Z,45.30
2017-07-09T13:25:47.440Z,46.37
2017-07-09T13:28:14.834Z,46.09
2017-07-09T13:30:42.235Z,45.67
2017-07-09T13:33:09.629Z,45.95
2017-07-09T13:35:37.024Z,45.17
2017-07-09T13:38:04.699Z,45.67
2017-07-09T13:40:32.097Z,45.14
2017-07-09T13:42:59.714Z,44.80
2017-07-09T13:45:27.115Z,44.64
2017-07-09T13:47:54.507Z,44.40
2017-07-09T13:50:21.905Z,44.50
2017-07-09T13:52:49.291Z,45.13
2017-07-09T13:55:16.695Z,44.04
2017-07-09T13:57:44.091Z,43.45
2017-07-09T14:00:11.488Z,43.59
2017-07-09T14:02:38.882Z,43.36
2017-07-09T14:05:06.520Z,43.87
2017-07-09T14:07:33.908Z,44.30
2017-07-09T14:10:01.634Z,45.49
2017-07-09T14:12:29.032Z,46.24
2017-07-09T14:14:56.424Z,45.07
2017-07-09T14:17:23.824Z,44.52
2017-07-09T14:19:51.224Z,46.00
2017-07-09T14:22:18.627Z,45.62
2017-07-09T14:24:46.043Z,44.59
2017-07-09T14:27:13.440Z,45.96
2017-07-09T14:29:40.832Z,45.18
2017-07-09T14:32:08.241Z,45.27
2017-07-09T14:34:35.897Z,45.40
2017-07-09T14:37:03.295Z,44.95
2017-07-09T14:39:30.692Z,46.36
2017-07-09T14:41:58.089Z,46.63
2017-07-09T14:44:25.475Z,47.33
2017-07-09T14:46:52.899Z,47.61
2017-07-09T14:49:20.288Z,47.66
2017-07-09T14:51:47.682Z,45.91
2017-07-09T14:54:15.072Z,45.88
2017-07-09T14:56:42.468Z,46.19
2017-07-09T14:59:10.156Z,45.17
2017-07-09T15:01:37.555Z,46.52
2017-07-09T15:04:04.951Z,46.15
2017-07-09T15:06:32.628Z,45.71
2017-07-09T15:09:00.075Z,45.23
2017-07-09T15:11:27.467Z,44.35
2017-07-09T15:13:54.867Z,44.65
2017-07-09T15:16:22.264Z,45.08
2017-07-09T15:18:49.658Z,45.22
2017-07-09T15:21:17.067Z,45.05
2017-07-09T15:23:44.467Z,44.01
2017-07-09T15:26:11.865Z,44.83
2017-07-09T15:28:39.268Z,44.25
2017-07-09T15:31:06.670Z,45.12
2017-07-09T15:33:34.055Z,44.86
2017-07-09T15:36:01.455Z,45.88
2017-07-09T15:38:28.852Z,46.61
2017-07-09T15:40:56.240Z,46.93
2017-07-09T15:43:23.647Z,45.70
2017-07-09T15:45:51.041Z,46.34
2017-07-09T15:48:18.444Z,45.57
2017-07-09T15:50:46.129Z,45.97
2017-07-09T15:53:13.532Z,45.88
2017-07-09T15:55:40.928Z,46.72
2017-07-09T15:58:08.324Z,47.03
2017-07-09T16:00:35.738Z,47.33
2017-07-09T16:03:03.122Z,47.36
2017-07-09T16:05:30.766Z,47.42
2017-07-09T16:07:58.164Z,47.77
2017-07-09T16:10:25.561Z,46.90
2017-07-09T16:12:52.953Z,47.44
2017-07-09T16:15:20.347Z,47.99
2017-07-09T16:17:47.744Z,47.52
2017-07-09T16:20:15.131Z,47.75
2017-07-09T16:22:42.533Z,47.48
2017-07-09T16:25:09.924Z,47.83
2017-07-09T16:27:37.327Z,47.79
2017-07-09T16:30:04.720Z,47.62
2017-07-09T16:32:32.112Z,48.08
2017-07-09T16:34:59.835Z,48.21
2017-07-09T16:37:27.230Z,47.85
2017-07-09T16:39:54.788Z,47.97
2017-07-09T16:42:22.180Z,48.98
2017-07-09T16:44:49.571Z,47.82
2017-07-09T16:47:16.960Z,48.86
2017-07-09T16:49:44.365Z,49.22
2017-07-09T16:52:11.760Z,49.41
2017-07-09T16:54:39.161Z,49.26
2017-07-09T16:57:06.559Z,49.70
2017-07-09T16:59:33.967Z,50.30
2017-07-09T17:02:01.578Z,50.23
2017-07-09T17:04:28.967Z,50.29
2017-07-09T17:06:56.367Z,50.68
2017-07-09T17:09:23.764Z,50.33
2017-07-09T17:11:51.164Z,50.43
2017-07-09T17:14:18.636Z,49.98
2017-07-09T17:16:46.033Z,50.39
2017-07-09T17:19:13.427Z,50.40
2017-07-09T17:21:40.826Z,50.58
2017-07-09T17:24:08.217Z,50.20
2017-07-09T17:26:35.607Z,50.19
2017-07-09T17:29:03.012Z,50.67
2017-07-09T17:31:30.412Z,50.40
2017-07-09T17:33:57.837Z,50.62
2017-07-09T17:36:25.228Z,51.19
2017-07-09T17:38:52.623Z,51.38
2017-07-09T17:41:20.244Z,51.75
2017-07-09T17:43:47.684Z,52.28
2017-07-09T17:46:15.077Z,52.34
2017-07-09T17:48:42.467Z,52.81
2017-07-09T17:51:09.862Z,52.87
2017-07-09T17:53:37.251Z,52.14
2017-07-09T17:56:04.655Z,51.66
2017-07-09T17:58:32.048Z,51.19
2017-07-09T18:00:59.446Z,51.12
2017-07-09T18:03:26.832Z,51.13
2017-07-09T18:05:54.240Z,50.94
2017-07-09T18:08:21.627Z,49.77
2017-07-09T18:10:49.022Z,49.46
2017-07-09T18:13:16.416Z,49.80
2017-07-09T18:15:43.815Z,49.94
2017-07-09T18:18:11.217Z,49.87
2017-07-09T18:20:38.607Z,49.87
2017-07-09T18:23:05.994Z,50.15
2017-07-09T18:25:33.396Z,50.42
2017-07-09T18:28:00.784Z,50.77
2017-07-09T18:30:28.230Z,50.75
2017-07-09T18:32:55.571Z,51.48
2017-07-09T18:35:22.964Z,51.25
2017-07-09T18:37:50.619Z,51.10
2017-07-09T18:40:18.007Z,51.13
2017-07-09T18:42:45.399Z,51.15
2017-07-09T18:45:12.803Z,50.84
2017-07-09T18:47:40.445Z,50.77
2017-07-09T18:50:07.847Z,50.78
2017-07-09T18:52:35.228Z,51.33
2017-07-09T18:55:02.627Z,51.74
2017-07-09T18:57:30.272Z,51.53
2017-07-09T18:59:57.663Z,51.41
2017-07-09T19:02:25.062Z,51.29
2017-07-09T19:04:52.460Z,52.64
2017-07-09T19:07:19.856Z,52.05
2017-07-09T19:09:47.552Z,51.97
2017-07-09T19:12:15.212Z,52.22
2017-07-09T19:14:42.878Z,52.51
2017-07-09T19:17:10.280Z,52.10
2017-07-09T19:19:37.673Z,52.45
2017-07-09T19:22:05.064Z,53.35
2017-07-09T19:24:32.453Z,53.40
2017-07-09T19:26:59.857Z,53.58
2017-07-09T19:29:27.249Z,54.01
2017-07-09T19:31:54.659Z,54.26
2017-07-09T19:34:22.056Z,54.10
2017-07-09T19:36:49.448Z,54.18
2017-07-09T19:39:16.840Z,53.45
2017-07-09T19:41:44.232Z,53.94
2017-07-09T19:44:11.631Z,54.07
2017-07-09T19:46:39.032Z,54.02
2017-07-09T19:49:06.424Z,53.87
2017-07-09T19:51:33.843Z,53.58
2017-07-09T19:54:01.266Z,53.30
2017-07-09T19:56:28.671Z,53.69
2017-07-09T19:58:56.063Z,53.58
2017-07-09T20:01:23.464Z,53.20
2017-07-09T20:03:50.851Z,52.55
2017-07-09T20:06:18.268Z,53.15
2017-07-09T20:08:45.647Z,52.75
2017-07-09T20:11:13.051Z,53.15
2017-07-09T20:13:40.444Z,53.50
2017-07-09T20:16:07.845Z,54.02
2017-07-09T20:18:35.247Z,53.66
2017-07-09T20:21:02.642Z,53.77
2017-07-09T20:23:30.026Z,54.12
2017-07-09T20:25:57.422Z,54.51
2017-07-09T20:28:24.824Z,54.81
2017-07-09T20:30:52.222Z,54.87
2017-07-09T20:33:19.618Z,54.79
2017-07-09T20:35:47.004Z,55.20
2017-07-09T20:38:14.401Z,55.90
2017-07-09T20:40:41.796Z,56.44
2017-07-09T20:43:09.201Z,56.85
2017-07-09T20:45:36.823Z,56.47
2017-07-09T20:48:04.226Z,56.59
2017-07-09T20:50:31.617Z,56.32
2017-07-09T20:52:59.021Z,56.44
2017-07-09T20:55:26.408Z,57.42
2017-07-09T20:57:53.805Z,56.96
2017-07-09T21:00:21.193Z,56.65
2017-07-09T21:02:48.595Z,56.67
2017-07-09T21:05:15.977Z,56.01
2017-07-09T21:07:43.383Z,55.81
2017-07-09T21:10:10.779Z,56.24
2017-07-09T21:12:38.175Z,56.08
2017-07-09T21:15:05.575Z,56.53
2017-07-09T21:17:32.976Z,56.75
2017-07-09T21:20:00.362Z,57.42
2017-07-09T21:22:27.751Z,56.98
2017-07-09T21:24:55.147Z,56.78
2017-07-09T21:27:22.539Z,56.93
2017-07-09T21:29:49.936Z,57.27
2017-07-09T21:32:17.328Z,57.07
2017-07-09T21:34:44.724Z,57.03
2017-07-09T21:37:12.120Z,57.01
2017-07-09T21:39:39.738Z,57.17
2017-07-09T21:42:07.131Z,56.95
2017-07-09T21:44:34.530Z,57.39
2017-07-09T21:47:01.921Z,57.11
2017-07-09T21:49:29.318Z,56.76
2017-07-09T21:51:56.711Z,57.14
2017-07-09T21:54:24.114Z,57.63
2017-07-09T21:56:51.511Z,57.39
2017-07-09T21:59:18.912Z,57.48
2017-07-09T22:01:46.308Z,57.77
2017-07-09T22:04:13.710Z,57.79
2017-07-09T22:06:41.100Z,58.11
2017-07-09T22:09:08.502Z,58.54
2017-07-09T22:11:35.895Z,58.69
2017-07-09T22:14:03.298Z,58.35
2017-07-09T22:16:30.687Z,58.25
2017-07-09T22:18:58.121Z,57.94
2017-07-09T22:21:25.504Z,57.81
2017-07-09T22:23:52.907Z,57.92
2017-07-09T22:26:20.303Z,58.22
2017-07-09T22:28:47.696Z,58.26
2017-07-09T22:31:15.412Z,58.32
2017-07-09T22:33:43.015Z,58.68
2017-07-09T22:36:10.422Z,58.75
2017-07-09T22:38:37.804Z,58.91
2017-07-09T22:41:05.195Z,59.12
2017-07-09T22:43:32.590Z,59.20
2017-07-09T22:45:59.989Z,59.26
2017-07-09T22:48:27.383Z,59.45
2017-07-09T22:50:54.784Z,59.51
2017-07-09T22:53:22.183Z,59.95
2017-07-09T22:55:49.580Z,60.02
2017-07-09T22:58:16.973Z,60.24
2017-07-09T23:00:44.386Z,60.03
2017-07-09T23:03:12.614Z,59.97
2017-07-09T23:05:40.018Z,60.41
2017-07-09T23:08:07.415Z,60.10
2017-07-09T23:10:34.819Z,59.76
2017-07-09T23:13:02.204Z,60.48
2017-07-09T23:15:29.601Z,60.47
2017-07-09T23:17:56.987Z,60.25
2017-07-09T23:20:24.391Z,60.55
2017-07-09T23:22:51.787Z,60.30
2017-07-09T23:25:19.204Z,60.67
2017-07-09T23:27:46.627Z,60.61
2017-07-09T23:30:14.034Z,60.54
2017-07-09T23:32:41.427Z,61.57
2017-07-09T23:35:08.831Z,61.88
2017-07-09T23:37:36.233Z,63.24
2017-07-09T23:40:03.631Z,64.51
2017-07-09T23:42:31.029Z,64.78
2017-07-09T23:44:58.694Z,64.29
2017-07-09T23:47:26.091Z,64.62
2017-07-09T23:49:53.487Z,65.14
2017-07-09T23:52:20.899Z,65.75
2017-07-09T23:54:48.303Z,66.14
2017-07-09T23:57:15.711Z,66.70
2017-07-09T23:59:43.108Z,66.93
